Time;durP1;ratioP1;P1;durP2;ratioP2;P2;SDS_P1;SDS_P2;PMS_P1;PMS_P2;Temp;Humidity;BMP_temperature;BMP_pressure;BME280_temperature;BME280_humidity;BME280_pressure;Samples;Min_cycle;Max_cycle;Signal;HPM_P1;HPM_P2
2022/02/09 00:02:00;;;;;;;6.18;1.30;;;;;;;7.58;70.69;100802.69;5022436;28;20077;-55
2022/02/09 00:04:25;;;;;;;1.33;1.15;;;;;;;7.52;71.13;100799.97;5023070;28;20053;-59
2022/02/09 00:09:43;;;;;;;5.22;1.70;;;;;;;7.51;70.70;100801.69;5023498;28;20057;-56
2022/02/09 00:12:17;;;;;;;1.48;0.80;;;;;;;7.51;72.40;100800.81;5023761;28;20111;-55
2022/02/09 00:14:55;;;;;;;4.88;1.40;;;;;;;7.49;71.72;100802.50;5021262;28;20073;-58
2022/02/09 00:17:46;;;;;;;3.95;0.95;;;;;;;7.49;71.91;100792.19;5025281;28;20122;-59
2022/02/09 00:20:58;;;;;;;5.90;1.45;;;;;;;7.44;72.66;100795.50;5021253;28;21618;-56
2022/02/09 00:28:54;;;;;;;2.67;1.45;;;;;;;7.37;71.93;100783.34;5024773;28;20095;-56
2022/02/09 00:43:08;;;;;;;2.90;1.20;;;;;;;7.26;71.63;100771.94;5024164;28;20041;-59
2022/02/09 01:02:42;;;;;;;1.77;1.15;;;;;;;7.14;72.69;100765.66;5021992;28;20053;-58
2022/02/09 01:42:12;;;;;;;2.22;1.30;;;;;;;6.89;73.32;100754.75;5022495;28;20049;-55
2022/02/09 01:44:35;;;;;;;1.75;0.40;;;;;;;6.88;72.35;100760.75;5018740;28;20443;-54
2022/02/09 01:57:44;;;;;;;2.55;1.23;;;;;;;6.86;72.50;100753.81;5042145;28;20110;-59
2022/02/09 02:00:11;;;;;;;2.65;1.17;;;;;;;6.85;73.49;100752.94;5049494;28;20072;-56
2022/02/09 02:02:38;;;;;;;1.45;1.35;;;;;;;6.85;73.37;100752.09;5045701;28;20497;-58
2022/02/09 02:05:04;;;;;;;2.13;1.45;;;;;;;6.83;72.44;100754.63;5050888;28;20044;-56
2022/02/09 02:07:46;;;;;;;2.97;1.35;;;;;;;6.85;73.19;100755.53;5043220;28;20107;-57
2022/02/09 02:10:15;;;;;;;2.97;1.02;;;;;;;6.83;73.33;100749.47;5043725;28;20045;-54
2022/02/09 02:12:58;;;;;;;3.83;1.50;;;;;;;6.80;73.19;100744.25;5053521;28;20055;-52
2022/02/09 02:15:54;;;;;;;3.40;1.50;;;;;;;6.82;73.43;100748.59;5041216;28;20057;-58
2022/02/09 02:18:11;;;;;;;2.30;1.63;;;;;;;6.82;73.47;100750.28;5049409;28;20113;-58
2022/02/09 02:26:18;;;;;;;4.15;1.00;;;;;;;6.80;72.86;100749.41;5044489;28;20471;-60
2022/02/09 02:28:57;;;;;;;2.45;1.67;;;;;;;6.82;72.91;100752.88;5047169;28;20094;-53
2022/02/09 02:32:58;;;;;;;3.88;1.45;;;;;;;6.81;74.37;100754.59;5043058;28;20055;-58
2022/02/09 02:34:40;;;;;;;2.60;1.25;;;;;;;6.79;73.36;100752.81;5044338;28;20041;-54
2022/02/09 02:57:26;;;;;;;3.00;1.08;;;;;;;6.82;74.07;100728.00;5048036;28;20095;-56
2022/02/09 02:59:36;;;;;;;1.70;1.42;;;;;;;6.80;74.04;100718.50;5042567;28;20146;-59
2022/02/09 03:10:52;;;;;;;1.83;1.23;;;;;;;6.73;74.49;100711.47;5045787;28;20105;-59
2022/02/09 03:13:10;;;;;;;2.00;1.90;;;;;;;6.71;73.76;100707.97;5052388;28;20098;-58
2022/02/09 03:15:44;;;;;;;2.95;1.40;;;;;;;6.71;74.27;100707.97;5047217;28;20122;-59
2022/02/09 03:18:34;;;;;;;1.52;1.38;;;;;;;6.71;75.05;100700.25;5053709;28;20056;-58
2022/02/09 03:21:04;;;;;;;2.75;1.83;;;;;;;6.69;74.44;100690.78;5052948;28;20427;-59
2022/02/09 03:23:52;;;;;;;3.00;1.20;;;;;;;6.69;73.96;100695.09;5047284;28;20095;-62
2022/02/09 03:26:42;;;;;;;4.70;1.25;;;;;;;6.64;74.33;100689.81;5047450;28;20052;-55
2022/02/09 03:43:17;;;;;;;2.30;1.65;;;;;;;6.69;74.45;100680.50;5049171;28;20465;-53
2022/02/09 03:48:59;;;;;;;3.15;1.17;;;;;;;6.70;75.25;100676.22;5049953;28;20048;-55
2022/02/09 03:51:43;;;;;;;1.45;1.35;;;;;;;6.71;75.51;100680.53;5044048;28;20051;-59
2022/02/09 03:54:14;;;;;;;1.40;1.00;;;;;;;6.73;75.01;100685.72;5045475;28;20053;-60
2022/02/09 03:56:55;;;;;;;1.83;1.25;;;;;;;6.74;75.91;100683.19;5049300;28;20615;-56
2022/02/09 03:59:22;;;;;;;4.30;1.60;;;;;;;6.75;75.30;100684.91;5044864;28;20064;-54
2022/02/09 04:01:50;;;;;;;1.85;1.55;;;;;;;6.78;74.31;100684.09;5046857;28;20663;-58
2022/02/09 04:04:17;;;;;;;4.50;1.35;;;;;;;6.80;75.95;100678.16;5048002;28;20102;-54
2022/02/09 04:06:48;;;;;;;2.60;1.58;;;;;;;6.82;76.08;100678.19;5054432;28;20070;-59
2022/02/09 04:09:17;;;;;;;3.33;1.67;;;;;;;6.82;74.41;100680.78;5046130;28;20057;-57
2022/02/09 04:11:50;;;;;;;3.05;1.15;;;;;;;6.86;75.17;100687.72;5053465;28;20041;-56
2022/02/09 04:17:17;;;;;;;2.63;2.20;;;;;;;6.90;75.36;100679.25;5043299;28;20049;-59
2022/02/09 04:36:00;;;;;;;3.15;1.92;;;;;;;7.00;76.13;100664.88;5039840;28;20110;-55
2022/02/09 04:36:35;;;;;;;5.05;1.27;;;;;;;7.00;75.19;100648.56;5047432;28;20492;-60
2022/02/09 04:39:22;;;;;;;2.20;1.95;;;;;;;6.98;75.29;100655.34;5049799;28;20064;-54
2022/02/09 04:42:05;;;;;;;4.60;1.70;;;;;;;6.98;74.81;100639.91;5046368;28;20559;-60
2022/02/09 04:44:48;;;;;;;2.65;1.65;;;;;;;7.00;75.42;100641.69;5055387;28;20048;-58
2022/02/09 04:47:47;;;;;;;1.90;1.48;;;;;;;7.00;76.10;100648.56;5049056;28;20583;-60
2022/02/09 04:50:16;;;;;;;2.95;2.33;;;;;;;7.01;76.67;100645.13;5047888;28;20057;-57
2022/02/09 04:55:47;;;;;;;3.95;1.45;;;;;;;7.08;75.14;100641.84;5045384;28;20041;-60
2022/02/09 04:58:32;;;;;;;2.80;1.52;;;;;;;7.10;75.34;100634.16;5044704;28;20489;-55
2022/02/09 05:01:10;;;;;;;2.85;2.50;;;;;;;7.10;76.79;100635.03;5046501;28;20040;-57
2022/02/09 05:04:02;;;;;;;3.53;1.58;;;;;;;7.09;76.91;100638.44;5045394;28;20059;-57
2022/02/09 05:21:11;;;;;;;5.15;1.70;;;;;;;7.15;76.73;100648.88;5043200;28;20566;-57
2022/02/09 05:23:24;;;;;;;4.20;1.63;;;;;;;7.18;76.83;100650.63;5048786;28;20833;-54
2022/02/09 05:25:51;;;;;;;4.25;1.67;;;;;;;7.19;75.07;100650.69;5051049;28;20102;-53
2022/02/09 05:28:19;;;;;;;2.30;1.75;;;;;;;7.22;75.42;100659.31;5049932;28;20045;-52
2022/02/09 05:30:48;;;;;;;4.05;1.77;;;;;;;7.25;76.12;100659.38;5052555;28;20036;-57
2022/02/09 05:33:15;;;;;;;1.45;1.30;;;;;;;7.24;76.22;100657.63;5047362;28;20052;-57
2022/02/09 05:35:47;;;;;;;2.33;1.38;;;;;;;7.27;76.55;100652.56;5053957;28;20045;-57
2022/02/09 05:38:15;;;;;;;5.72;2.55;;;;;;;7.27;76.38;100652.56;5055498;28;20051;-57
2022/02/09 05:40:44;;;;;;;3.20;1.92;;;;;;;7.28;75.76;100649.13;5047556;28;20099;-55
2022/02/09 05:43:12;;;;;;;2.10;1.25;;;;;;;7.27;75.74;100642.25;5056227;28;20106;-57
2022/02/09 05:46:02;;;;;;;4.50;1.77;;;;;;;7.27;76.07;100657.69;5039758;28;20044;-57
2022/02/09 05:49:13;;;;;;;3.08;1.90;;;;;;;7.25;76.07;100644.78;5043226;28;20107;-61
2022/02/09 05:51:25;;;;;;;1.73;1.55;;;;;;;7.24;75.88;100652.47;5046950;28;20105;-57
2022/02/09 05:54:27;;;;;;;2.05;1.60;;;;;;;7.23;76.29;100651.59;5043295;28;20048;-60
2022/02/09 05:56:45;;;;;;;3.08;1.25;;;;;;;7.20;75.06;100652.41;5049916;28;20100;-61
2022/02/09 05:59:27;;;;;;;1.70;1.33;;;;;;;7.23;74.99;100651.59;5041879;28;20111;-59
2022/02/09 06:01:55;;;;;;;2.63;1.33;;;;;;;7.19;75.93;100644.66;5039988;28;20052;-61
2022/02/09 06:04:22;;;;;;;3.05;2.00;;;;;;;7.17;75.74;100654.91;5058619;28;20041;-56
2022/02/09 06:06:49;;;;;;;3.47;1.48;;;;;;;7.16;74.91;100650.59;5041939;28;20072;-58
2022/02/09 06:09:15;;;;;;;3.35;1.77;;;;;;;7.15;76.37;100648.88;5048536;28;20048;-59
2022/02/09 06:11:48;;;;;;;2.67;1.98;;;;;;;7.16;75.44;100660.91;5049646;28;20090;-61
2022/02/09 06:14:37;;;;;;;5.20;4.40;;;;;;;7.16;75.26;100660.91;5038388;28;20057;-58
2022/02/09 06:19:53;;;;;;;8.27;2.08;;;;;;;7.24;75.85;100667.94;5042513;28;20068;-56
2022/02/09 06:22:23;;;;;;;2.65;2.13;;;;;;;7.28;75.35;100664.59;5048893;28;20045;-54
2022/02/09 06:24:50;;;;;;;3.08;1.65;;;;;;;7.29;76.17;100666.31;5043523;28;20079;-58
2022/02/09 06:27:17;;;;;;;2.80;1.80;;;;;;;7.34;77.40;100662.16;5048181;28;20041;-54
2022/02/09 06:29:46;;;;;;;2.72;0.70;;;;;;;7.39;76.25;100665.69;5048306;28;20455;-56
2022/02/09 06:32:14;;;;;;;2.60;1.40;;;;;;;7.39;76.05;100668.25;5039909;28;20049;-55
2022/02/09 06:34:43;;;;;;;2.05;1.20;;;;;;;7.43;76.13;100669.19;5051435;28;20076;-58
2022/02/09 06:37:14;;;;;;;3.58;1.58;;;;;;;7.43;76.93;100675.22;5050884;28;20052;-54
2022/02/09 06:39:45;;;;;;;4.10;1.48;;;;;;;7.46;76.16;100667.53;5045408;28;20131;-59
2022/02/09 06:42:19;;;;;;;3.30;1.67;;;;;;;7.50;75.91;100670.19;5050959;28;20099;-58
2022/02/09 06:44:46;;;;;;;2.33;1.27;;;;;;;7.54;76.23;100682.28;5042682;28;20096;-59
2022/02/09 06:47:12;;;;;;;4.65;2.00;;;;;;;7.56;76.40;100678.03;5052839;28;20107;-59
2022/02/09 06:49:41;;;;;;;9.07;3.08;;;;;;;7.57;76.13;100677.22;5055036;28;20045;-58
2022/02/09 06:52:08;;;;;;;35.60;17.25;;;;;;;7.62;76.78;100670.44;5048029;28;20699;-52
2022/02/09 06:54:55;;;;;;;6.38;2.22;;;;;;;7.64;77.06;100678.19;5060440;28;20057;-56
2022/02/09 06:57:33;;;;;;;8.60;3.20;;;;;;;7.72;75.71;100672.34;5049690;28;20049;-57
2022/02/09 07:00:00;;;;;;;7.82;3.38;;;;;;;7.77;76.60;100675.00;5050242;28;20052;-56
2022/02/09 07:02:26;;;;;;;4.70;2.38;;;;;;;7.81;76.78;100670.78;5055237;28;20102;-61
2022/02/09 07:04:53;;;;;;;1.67;1.25;;;;;;;7.86;75.55;100679.47;5047792;28;20044;-57
2022/02/09 07:07:20;;;;;;;4.20;2.08;;;;;;;7.87;75.66;100686.34;5049019;28;20102;-55
2022/02/09 07:09:48;;;;;;;1.92;1.73;;;;;;;7.92;76.46;100683.88;5046062;28;20533;-58
2022/02/09 07:12:15;;;;;;;2.42;1.38;;;;;;;7.92;76.38;100689.91;5049989;28;20045;-59
2022/02/09 07:14:42;;;;;;;5.60;2.95;;;;;;;7.98;75.35;100689.16;5047793;28;20057;-55
2022/02/09 07:17:08;;;;;;;3.65;2.08;;;;;;;7.98;75.93;100684.84;5046761;28;20111;-58
2022/02/09 07:19:37;;;;;;;3.65;1.95;;;;;;;8.02;75.96;100697.81;5044077;28;20048;-58
2022/02/09 07:22:06;;;;;;;7.13;2.83;;;;;;;8.02;76.01;100696.09;5048137;28;20074;-57
2022/02/09 07:24:33;;;;;;;2.78;1.92;;;;;;;8.02;75.83;100690.94;5053464;28;20138;-54
2022/02/09 07:27:23;;;;;;;7.43;3.15;;;;;;;8.05;76.01;100692.69;5046073;28;20049;-59
2022/02/09 07:29:46;;;;;;;5.78;2.58;;;;;;;8.05;76.36;100693.59;5050880;28;20052;-59
2022/02/09 07:32:12;;;;;;;3.58;1.80;;;;;;;8.07;75.86;100678.13;5052996;28;20040;-54
2022/02/09 07:34:39;;;;;;;4.22;1.90;;;;;;;8.06;75.50;100686.69;5052359;28;20045;-59
2022/02/09 07:37:06;;;;;;;9.30;3.35;;;;;;;8.05;75.23;100682.38;5042392;28;20102;-55
2022/02/09 07:39:33;;;;;;;6.97;2.65;;;;;;;8.02;76.11;100690.06;5043147;28;20049;-54
2022/02/09 07:42:07;;;;;;;5.43;3.35;;;;;;;8.02;76.25;100684.91;5047471;28;20044;-54
2022/02/09 07:45:22;;;;;;;5.00;3.05;;;;;;;8.03;75.81;100686.63;5045687;28;20509;-55
2022/02/09 07:47:38;;;;;;;3.95;2.75;;;;;;;8.02;75.70;100696.09;5034733;28;20134;-58
2022/02/09 07:53:06;;;;;;;6.93;3.28;;;;;;;8.04;76.02;100703.88;5045249;28;20701;-59
2022/02/09 07:55:32;;;;;;;3.58;2.65;;;;;;;8.06;75.08;100697.00;5049702;28;20049;-57
2022/02/09 07:58:00;;;;;;;8.05;2.67;;;;;;;8.12;75.54;100704.00;5048943;28;20044;-49
2022/02/09 08:00:27;;;;;;;6.50;2.83;;;;;;;8.17;75.40;100710.13;5046597;28;20119;-60
2022/02/09 08:02:53;;;;;;;18.10;5.10;;;;;;;8.21;75.96;100705.03;5047816;28;20048;-56
2022/02/09 08:05:21;;;;;;;6.38;2.88;;;;;;;8.28;75.83;100703.41;5047100;28;20044;-54
2022/02/09 08:07:48;;;;;;;3.40;2.28;;;;;;;8.31;74.64;100705.22;5044378;28;20072;-54
2022/02/09 08:10:22;;;;;;;5.65;2.17;;;;;;;8.35;75.20;100715.59;5042196;28;20076;-56
2022/02/09 08:24:05;;;;;;;5.32;2.58;;;;;;;8.46;75.24;100714.91;5043935;28;20056;-57
2022/02/09 08:27:06;;;;;;;3.78;2.15;;;;;;;8.51;75.06;100727.91;5045934;28;20063;-59
2022/02/09 08:29:45;;;;;;;7.05;3.08;;;;;;;8.57;75.06;100722.84;5046049;28;20048;-56
2022/02/09 08:33:04;;;;;;;5.70;1.10;;;;;;;8.61;74.51;100724.66;5046612;28;20652;-58
2022/02/09 08:34:59;;;;;;;5.43;1.55;;;;;;;8.65;74.87;100733.31;5056262;28;20048;-54
2022/02/09 08:37:26;;;;;;;3.45;1.50;;;;;;;8.68;74.92;100718.75;5043292;28;20045;-52
2022/02/09 08:39:54;;;;;;;2.70;1.50;;;;;;;8.69;74.93;100729.94;5053526;28;20048;-52
2022/02/09 08:42:21;;;;;;;3.97;1.40;;;;;;;8.71;74.81;100739.44;5049510;28;20482;-55
2022/02/09 08:44:48;;;;;;;6.65;2.05;;;;;;;8.73;74.51;100734.31;5052266;28;20126;-54
2022/02/09 08:47:35;;;;;;;2.55;1.52;;;;;;;8.74;74.91;100734.34;5049836;28;20044;-59
2022/02/09 08:50:05;;;;;;;3.47;1.58;;;;;;;8.76;74.32;100741.25;5047424;28;20053;-55
2022/02/09 08:52:31;;;;;;;2.53;1.90;;;;;;;8.79;74.18;100736.13;5054785;28;20045;-53
2022/02/09 08:54:58;;;;;;;2.95;2.00;;;;;;;8.80;74.94;100743.91;5048019;28;20045;-58
2022/02/09 08:57:27;;;;;;;3.33;1.38;;;;;;;8.79;74.40;100743.88;5047088;28;20055;-50
2022/02/09 08:59:53;;;;;;;2.58;2.05;;;;;;;8.78;74.94;100749.91;5050631;28;20052;-53
2022/02/09 09:02:23;;;;;;;8.80;3.35;;;;;;;8.82;74.70;100754.25;5047035;28;20110;-56
2022/02/09 09:04:54;;;;;;;8.20;3.80;;;;;;;8.85;74.32;100749.16;5050207;28;20045;-52
2022/02/09 09:07:25;;;;;;;3.47;2.47;;;;;;;8.89;75.04;100747.47;5043308;28;20101;-55
2022/02/09 09:10:03;;;;;;;10.10;2.90;;;;;;;8.92;75.12;100753.53;5055523;28;20057;-51
2022/02/09 09:18:43;;;;;;;5.82;2.92;;;;;;;8.97;75.68;100751.03;5051527;28;20045;-55
2022/02/09 09:42:25;;;;;;;8.23;3.88;;;;;;;9.10;75.37;100765.91;5044208;28;20050;-59
2022/02/09 10:02:48;;;;;;;4.93;2.50;;;;;;;9.49;75.72;100771.59;5044919;28;20045;-59
2022/02/09 10:05:39;;;;;;;12.43;2.90;;;;;;;9.76;75.43;100772.78;5053699;28;20101;-58
2022/02/09 10:34:16;;;;;;;8.18;3.35;;;;;;;10.56;72.86;100809.03;5065987;28;20049;-56
2022/02/09 10:36:49;;;;;;;5.32;1.50;;;;;;;10.53;73.32;100812.47;5050156;28;20583;-55
2022/02/09 10:39:25;;;;;;;3.88;2.65;;;;;;;10.51;73.39;100816.78;5060383;28;20097;-59
2022/02/09 10:42:09;;;;;;;4.80;1.80;;;;;;;10.53;73.09;100810.78;5044875;28;20432;-56
2022/02/09 10:44:48;;;;;;;7.05;2.47;;;;;;;10.61;73.12;100812.56;5051764;28;20728;-57
2022/02/09 10:47:19;;;;;;;7.30;3.45;;;;;;;10.70;73.10;100817.81;5055402;28;20044;-56
2022/02/09 10:50:08;;;;;;;5.57;2.70;;;;;;;10.74;73.23;100826.50;5048654;28;20123;-56
2022/02/09 10:52:41;;;;;;;3.65;2.58;;;;;;;10.77;73.21;100829.97;5051304;28;20040;-58
2022/02/09 10:55:31;;;;;;;4.43;2.55;;;;;;;10.75;72.06;100831.72;5046295;28;20137;-55
2022/02/09 10:57:59;;;;;;;3.40;2.47;;;;;;;10.75;71.78;100836.91;5050015;28;20057;-58
2022/02/09 11:00:27;;;;;;;4.65;2.47;;;;;;;10.72;72.90;100836.84;5051146;28;20049;-54
2022/02/09 11:02:55;;;;;;;5.00;3.05;;;;;;;10.70;72.67;100841.16;5048080;28;20099;-58
2022/02/09 11:05:22;;;;;;;2.75;2.22;;;;;;;10.64;72.83;100829.00;5053623;28;20051;-56
2022/02/09 11:07:51;;;;;;;2.95;2.75;;;;;;;10.60;72.77;100837.59;5049215;28;20562;-59
2022/02/09 11:10:18;;;;;;;4.10;2.20;;;;;;;10.52;71.66;100827.19;5045910;28;20058;-59
2022/02/09 11:12:45;;;;;;;4.18;2.38;;;;;;;10.49;71.83;100832.31;5043525;28;20173;-54
2022/02/09 11:15:20;;;;;;;2.47;1.85;;;;;;;10.53;72.49;100826.31;5043878;28;20496;-53
2022/02/09 11:17:48;;;;;;;4.15;2.47;;;;;;;10.59;72.27;100830.69;5048249;28;20045;-57
2022/02/09 11:20:19;;;;;;;3.75;2.15;;;;;;;10.63;72.63;100831.56;5049239;28;20091;-57
2022/02/09 11:22:46;;;;;;;3.22;1.65;;;;;;;10.64;71.82;100828.16;5049160;28;20103;-54
2022/02/09 11:25:26;;;;;;;4.10;2.25;;;;;;;10.62;71.48;100835.03;5050808;28;20107;-53
2022/02/09 11:28:19;;;;;;;2.67;2.08;;;;;;;10.57;71.93;100836.72;5049474;28;20056;-58
2022/02/09 11:31:11;;;;;;;2.45;1.88;;;;;;;10.53;71.66;100841.84;5042731;28;20095;-58
2022/02/09 11:34:03;;;;;;;4.03;2.22;;;;;;;10.47;71.60;100839.19;5040759;28;20053;-54
2022/02/09 11:36:39;;;;;;;3.75;2.33;;;;;;;10.46;72.44;100841.75;5049023;28;20136;-54
2022/02/09 11:39:18;;;;;;;;;;;;;;;10.32;72.46;100849.34;5045477;28;20057;-57
2022/02/09 11:41:59;;;;;;;2.28;1.50;;;;;;;10.33;72.10;100838.16;5054227;28;20054;-57
2022/02/09 11:44:54;;;;;;;2.92;1.63;;;;;;;10.26;71.69;100843.25;5043552;28;20083;-58
2022/02/09 11:47:59;;;;;;;3.25;2.47;;;;;;;10.28;72.49;100841.56;5049376;28;20548;-58
2022/02/09 11:50:54;;;;;;;5.03;1.42;;;;;;;10.34;71.73;100834.72;5052002;28;20439;-56
2022/02/09 11:56:42;;;;;;;2.40;1.55;;;;;;;10.39;72.27;100833.91;5042571;28;20129;-56
2022/02/09 11:59:33;;;;;;;2.97;2.38;;;;;;;10.40;71.56;100830.47;5052563;28;20158;-59
2022/02/09 12:08:43;;;;;;;2.90;1.92;;;;;;;10.43;71.44;100834.78;5037801;28;20971;-56
2022/02/09 12:10:20;;;;;;;4.65;1.70;;;;;;;10.52;70.90;100827.19;5044854;28;20088;-53
2022/02/09 12:12:57;;;;;;;2.50;1.67;;;;;;;10.56;70.79;100834.94;5037976;28;20053;-58
2022/02/09 12:16:19;;;;;;;1.70;1.33;;;;;;;10.58;71.20;100828.06;5042257;28;20064;-59
2022/02/09 12:18:36;;;;;;;2.40;1.50;;;;;;;10.64;70.43;100823.81;5026100;28;20056;-55
2022/02/09 12:21:16;;;;;;;1.45;1.08;;;;;;;10.67;70.37;100822.97;5040683;28;20562;-58
2022/02/09 12:23:46;;;;;;;2.05;1.10;;;;;;;10.70;70.60;100823.00;5042436;28;20072;-54
2022/02/09 12:26:14;;;;;;;2.65;1.48;;;;;;;10.72;70.40;100826.50;5048693;28;20049;-58
2022/02/09 12:28:43;;;;;;;2.85;1.55;;;;;;;10.76;70.33;100817.91;5046053;28;20085;-57
2022/02/09 12:31:14;;;;;;;5.40;1.73;;;;;;;10.79;69.51;100817.94;5040915;28;20119;-56
2022/02/09 12:33:44;;;;;;;2.40;1.00;;;;;;;10.82;69.58;100818.78;5042025;28;20408;-57
2022/02/09 12:36:15;;;;;;;5.53;1.40;;;;;;;10.83;69.96;100812.75;5042546;28;20056;-59
2022/02/09 12:38:45;;;;;;;2.35;1.73;;;;;;;10.84;69.00;100809.31;5047231;28;20049;-55
2022/02/09 12:41:18;;;;;;;1.63;1.42;;;;;;;10.86;69.89;100811.06;5045110;28;20036;-54
2022/02/09 12:43:50;;;;;;;2.70;1.80;;;;;;;10.89;69.27;100805.03;5043811;28;20045;-55
2022/02/09 12:46:20;;;;;;;2.35;2.05;;;;;;;10.90;69.35;100805.06;5043336;28;20508;-57
2022/02/09 12:48:50;;;;;;;1.88;1.58;;;;;;;10.92;69.52;100812.84;5045382;28;20052;-56
2022/02/09 12:51:27;;;;;;;5.45;2.35;;;;;;;10.89;69.93;100812.81;5046887;28;20099;-59
2022/02/09 12:53:59;;;;;;;1.92;1.83;;;;;;;10.87;69.37;100814.50;5042027;28;20051;-56
2022/02/09 12:56:32;;;;;;;1.90;1.73;;;;;;;10.83;69.95;100812.75;5047854;28;20098;-55
2022/02/09 12:59:07;;;;;;;1.50;1.40;;;;;;;10.79;68.80;100811.88;5043234;28;20057;-52
2022/02/09 13:01:54;;;;;;;1.30;0.70;;;;;;;10.71;69.43;100809.19;5050825;28;20663;-56
2022/02/09 13:04:39;;;;;;;2.72;1.70;;;;;;;10.70;69.62;100806.63;5039722;28;20048;-55
2022/02/09 13:07:12;;;;;;;2.42;1.77;;;;;;;10.74;69.74;100803.19;5035040;28;20049;-54
2022/02/09 13:09:45;;;;;;;3.00;1.67;;;;;;;10.75;69.68;100803.22;5039561;28;20054;-57
2022/02/09 13:12:12;;;;;;;2.80;2.35;;;;;;;10.80;70.34;100804.09;5037579;28;20072;-57
2022/02/09 13:14:45;;;;;;;4.00;2.58;;;;;;;10.88;69.33;100805.91;5034854;28;20049;-57
2022/02/09 13:17:31;;;;;;;2.83;1.45;;;;;;;10.90;69.32;100804.16;5038089;28;20144;-56
2022/02/09 13:20:32;;;;;;;3.47;1.88;;;;;;;10.93;70.28;100794.72;5030327;28;20041;-57
2022/02/09 13:23:23;;;;;;;4.68;1.52;;;;;;;11.00;69.69;100795.63;5035199;28;20095;-58
2022/02/09 13:26:02;;;;;;;2.67;2.17;;;;;;;11.06;68.97;100789.63;5032868;28;20198;-58
2022/02/09 13:52:16;;;;;;;2.33;1.38;;;;;;;11.27;68.18;100790.59;5033663;28;20048;-58
2022/02/09 14:03:31;;;;;;;2.95;2.00;;;;;;;11.17;67.78;100779.31;5035708;28;20220;-55
2022/02/09 14:12:05;;;;;;;2.05;1.88;;;;;;;11.15;67.42;100786.22;5030027;28;20106;-59
2022/02/09 14:17:12;;;;;;;2.45;1.63;;;;;;;11.17;67.19;100772.41;5028609;28;20053;-54
2022/02/09 14:34:41;;;;;;;2.00;1.35;;;;;;;11.22;65.77;100769.84;5038070;28;20053;-54
2022/02/09 14:47:54;;;;;;;2.25;1.58;;;;;;;11.17;65.94;100756.84;5038433;28;20057;-56
2022/02/09 14:53:05;;;;;;;1.23;1.00;;;;;;;11.07;65.26;100769.75;5035600;28;20057;-58
2022/02/09 14:55:47;;;;;;;4.40;1.98;;;;;;;10.96;64.91;100762.75;5038894;28;20048;-55
2022/02/09 14:58:21;;;;;;;5.72;3.03;;;;;;;10.76;65.58;100768.66;5039969;28;20053;-53
2022/02/09 15:00:59;;;;;;;8.95;3.10;;;;;;;10.66;66.23;100779.78;5037744;28;20041;-55
2022/02/09 15:03:48;;;;;;;7.40;3.67;;;;;;;10.53;66.61;100769.31;5045578;28;20047;-60
2022/02/09 15:06:41;;;;;;;7.78;4.00;;;;;;;10.44;67.06;100781.28;5044789;28;20098;-52
2022/02/09 15:09:09;;;;;;;8.43;3.30;;;;;;;10.34;67.17;100772.56;5059764;28;20099;-56
2022/02/09 15:11:58;;;;;;;5.53;3.25;;;;;;;10.24;67.23;100777.63;5045012;28;20072;-55
2022/02/09 15:14:33;;;;;;;5.57;3.22;;;;;;;10.21;67.93;100781.94;5052092;28;20119;-58
2022/02/09 15:22:35;;;;;;;6.45;2.80;;;;;;;10.07;67.97;100789.53;5055692;28;20133;-54
2022/02/09 15:25:12;;;;;;;4.25;2.58;;;;;;;10.05;68.10;100791.22;5048699;28;20041;-57
2022/02/09 15:27:39;;;;;;;3.72;2.45;;;;;;;9.97;67.87;100789.41;5049883;28;20049;-60
2022/02/09 15:30:06;;;;;;;4.85;2.83;;;;;;;9.92;68.07;100791.09;5049575;28;20049;-56
2022/02/09 15:32:38;;;;;;;2.97;1.42;;;;;;;9.89;68.51;100791.94;5047817;28;20573;-55
2022/02/09 15:35:14;;;;;;;7.25;2.00;;;;;;;9.87;68.33;100792.78;5053747;28;20060;-57
2022/02/09 15:37:50;;;;;;;3.85;2.45;;;;;;;9.80;68.39;100786.66;5049436;28;20048;-56
2022/02/09 15:40:33;;;;;;;5.20;2.42;;;;;;;9.78;68.33;100780.59;5052969;28;20057;-55
2022/02/09 15:44:08;;;;;;;2.60;1.65;;;;;;;9.73;68.47;100779.66;5044472;28;20066;-56
2022/02/09 15:57:20;;;;;;;2.10;1.50;;;;;;;9.50;68.85;100768.16;5043206;28;20559;-53
2022/02/09 16:05:35;;;;;;;2.47;1.35;;;;;;;9.48;69.16;100769.88;5042263;28;20098;-58
2022/02/09 16:16:44;;;;;;;2.22;2.03;;;;;;;9.31;68.99;100761.00;5043829;28;20061;-56
2022/02/09 16:21:59;;;;;;;3.40;1.55;;;;;;;9.26;68.82;100764.38;5045796;28;20037;-59
2022/02/09 16:24:31;;;;;;;2.90;1.42;;;;;;;9.24;68.64;100765.22;5044556;28;20769;-60
2022/02/09 16:38:28;;;;;;;2.40;1.45;;;;;;;9.14;68.29;100756.47;5045291;28;20045;-53
2022/02/09 16:46:24;;;;;;;4.00;1.02;;;;;;;9.07;67.88;100762.38;5042366;28;21543;-61
2022/02/09 16:51:50;;;;;;;3.83;2.22;;;;;;;8.99;68.32;100760.53;5056874;28;20098;-56
2022/02/09 16:54:44;;;;;;;1.90;1.45;;;;;;;8.98;67.55;100766.56;5048502;28;20061;-57
2022/02/09 17:08:21;;;;;;;2.95;1.83;;;;;;;8.97;67.69;100766.53;5044759;28;20041;-53
2022/02/09 17:19:15;;;;;;;3.38;1.10;;;;;;;8.77;68.05;100755.88;5040907;28;20452;-61
2022/02/09 17:21:42;;;;;;;3.95;1.88;;;;;;;8.75;68.46;100755.88;5035831;28;20402;-59
2022/02/09 17:24:08;;;;;;;5.70;2.50;;;;;;;8.74;67.89;100754.13;5035968;28;20091;-58
2022/02/09 17:26:35;;;;;;;2.55;1.35;;;;;;;8.72;67.58;100746.34;5039658;28;20098;-58
2022/02/09 17:29:03;;;;;;;3.72;2.33;;;;;;;8.71;67.62;100744.63;5037684;28;20048;-59
2022/02/09 17:31:40;;;;;;;3.38;1.67;;;;;;;8.67;68.33;100748.00;5035844;28;20068;-57
2022/02/09 17:34:48;;;;;;;3.13;1.60;;;;;;;8.64;67.91;100737.59;5037486;28;20132;-58
2022/02/09 17:37:10;;;;;;;4.53;1.08;;;;;;;8.60;68.18;100753.91;5034542;28;20053;-58
2022/02/09 17:53:32;;;;;;;4.18;1.80;;;;;;;8.40;68.03;100748.34;5045936;28;20102;-57
2022/02/09 17:56:05;;;;;;;11.27;4.32;;;;;;;8.38;67.79;100748.34;5037057;28;20052;-55
2022/02/09 17:58:46;;;;;;;6.18;3.45;;;;;;;8.37;67.86;100754.34;5036176;28;20040;-56
2022/02/09 18:01:15;;;;;;;4.55;2.40;;;;;;;8.34;67.85;100750.00;5035996;28;20106;-56
2022/02/09 18:03:43;;;;;;;5.85;2.70;;;;;;;8.34;68.53;100751.69;5039952;28;20058;-61
2022/02/09 18:06:17;;;;;;;8.48;4.32;;;;;;;8.32;68.13;100759.44;5042114;28;20103;-58
2022/02/09 18:09:07;;;;;;;12.15;4.78;;;;;;;8.30;68.61;100757.66;5038012;28;20501;-53
2022/02/09 18:12:02;;;;;;;10.15;4.55;;;;;;;8.27;67.90;100763.63;5039491;28;20045;-58
2022/02/09 18:14:32;;;;;;;12.55;5.30;;;;;;;8.26;67.67;100763.59;5038772;28;20045;-55
2022/02/09 18:31:06;;;;;;;20.90;6.80;;;;;;;8.18;68.28;100768.63;5033388;28;20473;-59
2022/02/09 18:33:51;;;;;;;16.48;6.82;;;;;;;8.15;68.65;100759.13;5038538;28;20048;-60
2022/02/09 18:44:43;;;;;;;19.75;8.60;;;;;;;8.10;68.50;100760.72;5041657;28;20033;-57
2022/02/09 18:47:38;;;;;;;17.80;7.95;;;;;;;8.10;67.61;100769.34;5044885;28;20076;-57
2022/02/09 19:03:54;;;;;;;3.33;1.77;;;;;;;8.04;67.99;100786.44;5043722;28;20534;-58
2022/02/09 19:06:36;;;;;;;4.53;3.22;;;;;;;8.03;68.02;100782.09;5041351;28;20053;-55
2022/02/09 19:15:00;;;;;;;5.13;3.60;;;;;;;8.00;68.63;100779.47;5039379;28;20049;-58
2022/02/09 19:17:40;;;;;;;7.82;2.45;;;;;;;7.98;67.62;100788.03;5041786;28;20056;-56
2022/02/09 19:20:26;;;;;;;5.70;2.28;;;;;;;7.95;68.49;100781.94;5040169;28;20045;-51
2022/02/09 19:29:16;;;;;;;5.32;3.78;;;;;;;7.89;68.64;100777.53;5043380;28;20102;-56
2022/02/09 19:31:18;;;;;;;3.45;1.92;;;;;;;7.85;68.24;100780.91;5039872;28;20455;-55
2022/02/09 19:43:05;;;;;;;9.25;4.40;;;;;;;7.77;68.74;100778.16;5022264;28;20053;-56
2022/02/09 19:47:57;;;;;;;6.63;4.28;;;;;;;7.74;67.74;100772.06;5022595;28;20088;-58
2022/02/09 19:50:41;;;;;;;9.88;4.32;;;;;;;7.72;68.71;100769.47;5020677;28;20049;-57
2022/02/09 19:56:05;;;;;;;5.60;3.90;;;;;;;7.66;69.61;100765.03;5013919;28;20055;-53
2022/02/09 19:58:41;;;;;;;7.93;4.43;;;;;;;7.65;68.34;100762.44;5014493;28;20095;-55
2022/02/09 20:01:13;;;;;;;7.97;4.95;;;;;;;7.64;68.74;100771.00;5014985;28;20041;-54
2022/02/09 20:03:40;;;;;;;7.78;4.03;;;;;;;7.61;68.94;100771.81;5015281;28;20117;-56
2022/02/09 20:06:07;;;;;;;10.25;3.60;;;;;;;7.57;69.10;100770.03;5018384;28;20135;-56
2022/02/09 20:08:37;;;;;;;22.08;8.93;;;;;;;7.56;69.60;100773.41;5014413;28;20045;-53
2022/02/09 20:11:05;;;;;;;16.70;6.85;;;;;;;7.54;68.13;100775.09;5017265;28;20069;-54
2022/02/09 20:13:32;;;;;;;11.43;5.18;;;;;;;7.54;68.62;100778.53;5016531;28;20053;-54